Airfield :
LOGIN :

Register | Disclaimer

   EN    FR    IT 

 










Legend :    VFR   Marginal VFR   IFR   Intensive IFR   Very Intensive IFR
Visi :
Ceiling :
>= 8 km
>= 3000ft
5 to 8 km
1000 to 3000 ft
1500m to 5 km
500 to 1000 ft
800 to 1500m
200 to 500 ft
< 800m
< 200 ft
Symbols :   Thunderstorms  Fog  Heavy snow  Heavy precipitations  Wind > 20 kt
SIGMETs :     Misc.  Thunderstorms  Icing  Turbulence  Mountain Waves  Volcanic Ashes






- Airport Elevation : 183 ft
- IATA code : HAJ


EDDV - Hanover/Langenhagen Int.

CURRENT METAR :
  • 011320Z AUTO 08005KT 6000 OVC006 02/00 Q1027 TEMPO 4000 BR OVC004

EXPIRED METARs :
  • 011250Z AUTO 06006KT 6000 OVC006 02/01 Q1028 TEMPO 4000 BR OVC004
  • 011220Z AUTO 09004KT 070V130 6000 OVC005 02/01 Q1028 TEMPO 4000 BR OVC004
  • 011150Z AUTO 07006KT 050V110 5000 BR OVC005 01/00 Q1028 TEMPO 4000 OVC004
  • 011120Z AUTO 10006KT 5000 BR OVC005 02/01 Q1028 TEMPO 4500 BKN004
  • 011050Z AUTO 08006KT 5000 BR OVC005 01/00 Q1028 TEMPO 4500 BKN004

TAF TAF EDDV
Valid from the 01 at 12:00 until the 02 at 12:00 UTC


011100Z 0112/0212 07007KT 6000 OVC006
TEMPO 0112/0120 3000 -RADZ BR BKN004
TEMPO 0120/0122 3000 -SG BKN004
TEMPO 0122/0212 3000 -SN BKN004



MET'MAP, your aeronautical weather chart ! - Copyright ORBIFLY December 2007 - Disclaimer

ORBIFLY MET'MAP TEAM :

Programming & Development : Alexandra Zaïnal
Original concept : Baudouin d'Aumeries
Technical & hardware support : Manuel Goepfert
Assistance : Marc-Olivier Méhu




SOURCES & CREDITS :

   NOAA